EGPK/PIK METAR and TAF weather

Enter ICAO airport designator
Station Type Date Time Source
EGPK METAR 2024/06/14 03:20 UTC NOAA

EGPK 140320Z 22008KT 190V250 9999 -RA FEW009 BKN026 BKN032 12/11 Q0993


Station Type Date Time Source
EGPK Decoded METAR 2024/06/14 03:20 UTC NOAA

Prestwick Airport, United Kingdom (EGPK) 55-30N 004-35W 0M
Jun 13, 2024 - 11:20 PM EDT / 2024.06.14 0320 UTC
Wind: from the SW (220 degrees) at 9 MPH (8 KT) (direction variable):0
Visibility: greater than 7 mile(s):0
Sky conditions: mostly cloudy
Weather: light rain
Temperature: 53 F (12 C)
Dew Point: 51 F (11 C)
Relative Humidity: 93%
Pressure (altimeter): 29.32 in. Hg (0993 hPa)
ob: EGPK 140320Z 22008KT 190V250 9999 -RA FEW009 BKN026 BKN032 12/11 Q0993
cycle: 3

Station Type Date Time Source
EGPK TAF 2024/06/14 02:45 UTC NOAA